sensor_id;sensor_type;location;lat;lon;timestamp;P1;durP1;ratioP1;P2;durP2;ratioP2
52838;SDS011;39219;53.678;9.856;2023-04-01T00:01:30;16.02;;;8.25;;
52838;SDS011;39219;53.678;9.856;2023-04-01T00:03:56;16.55;;;7.50;;
52838;SDS011;39219;53.678;9.856;2023-04-01T00:06:23;15.75;;;7.78;;
52838;SDS011;39219;53.678;9.856;2023-04-01T00:08:51;15.93;;;7.88;;
52838;SDS011;39219;53.678;9.856;2023-04-01T00:11:18;16.10;;;8.60;;
52838;SDS011;39219;53.678;9.856;2023-04-01T00:13:44;15.82;;;8.27;;
52838;SDS011;39219;53.678;9.856;2023-04-01T00:16:11;15.05;;;7.88;;
52838;SDS011;39219;53.678;9.856;2023-04-01T00:18:37;17.08;;;7.95;;
52838;SDS011;39219;53.678;9.856;2023-04-01T00:21:03;17.98;;;8.38;;
52838;SDS011;39219;53.678;9.856;2023-04-01T00:23:30;16.40;;;8.02;;
52838;SDS011;39219;53.678;9.856;2023-04-01T00:26:00;16.35;;;8.00;;
52838;SDS011;39219;53.678;9.856;2023-04-01T00:28:27;14.48;;;7.93;;
52838;SDS011;39219;53.678;9.856;2023-04-01T00:30:53;15.25;;;8.23;;
52838;SDS011;39219;53.678;9.856;2023-04-01T00:33:19;16.83;;;8.10;;
52838;SDS011;39219;53.678;9.856;2023-04-01T00:35:46;19.00;;;7.85;;
52838;SDS011;39219;53.678;9.856;2023-04-01T00:38:12;14.57;;;7.80;;
52838;SDS011;39219;53.678;9.856;2023-04-01T00:40:40;16.70;;;8.10;;
52838;SDS011;39219;53.678;9.856;2023-04-01T00:43:11;16.02;;;7.43;;
52838;SDS011;39219;53.678;9.856;2023-04-01T00:45:39;17.35;;;7.85;;
52838;SDS011;39219;53.678;9.856;2023-04-01T00:48:06;18.95;;;7.93;;
52838;SDS011;39219;53.678;9.856;2023-04-01T00:50:33;16.10;;;8.35;;
52838;SDS011;39219;53.678;9.856;2023-04-01T00:53:00;16.00;;;8.82;;
52838;SDS011;39219;53.678;9.856;2023-04-01T00:55:27;17.33;;;8.35;;
52838;SDS011;39219;53.678;9.856;2023-04-01T00:57:55;18.73;;;8.55;;
52838;SDS011;39219;53.678;9.856;2023-04-01T01:00:23;20.98;;;8.93;;
52838;SDS011;39219;53.678;9.856;2023-04-01T01:02:51;19.13;;;8.65;;
52838;SDS011;39219;53.678;9.856;2023-04-01T01:05:17;18.30;;;8.25;;
52838;SDS011;39219;53.678;9.856;2023-04-01T01:07:47;15.38;;;8.15;;
52838;SDS011;39219;53.678;9.856;2023-04-01T01:10:16;18.75;;;8.82;;
52838;SDS011;39219;53.678;9.856;2023-04-01T01:12:44;17.08;;;7.82;;
52838;SDS011;39219;53.678;9.856;2023-04-01T01:15:11;17.17;;;8.52;;
52838;SDS011;39219;53.678;9.856;2023-04-01T01:17:50;16.52;;;7.95;;
52838;SDS011;39219;53.678;9.856;2023-04-01T01:25:40;20.60;;;9.52;;
52838;SDS011;39219;53.678;9.856;2023-04-01T01:28:14;20.23;;;9.15;;
52838;SDS011;39219;53.678;9.856;2023-04-01T01:30:48;18.65;;;8.90;;
52838;SDS011;39219;53.678;9.856;2023-04-01T01:33:24;20.80;;;9.02;;
52838;SDS011;39219;53.678;9.856;2023-04-01T01:35:53;15.82;;;8.10;;
52838;SDS011;39219;53.678;9.856;2023-04-01T01:38:21;20.88;;;9.40;;
52838;SDS011;39219;53.678;9.856;2023-04-01T01:40:48;18.77;;;9.00;;
52838;SDS011;39219;53.678;9.856;2023-04-01T01:43:17;20.73;;;8.80;;
52838;SDS011;39219;53.678;9.856;2023-04-01T01:45:46;17.35;;;8.23;;
52838;SDS011;39219;53.678;9.856;2023-04-01T01:48:13;20.02;;;9.10;;
52838;SDS011;39219;53.678;9.856;2023-04-01T01:50:40;20.73;;;8.45;;
52838;SDS011;39219;53.678;9.856;2023-04-01T01:53:09;20.02;;;9.55;;
52838;SDS011;39219;53.678;9.856;2023-04-01T01:55:36;17.52;;;8.60;;
52838;SDS011;39219;53.678;9.856;2023-04-01T01:58:05;20.45;;;9.25;;
52838;SDS011;39219;53.678;9.856;2023-04-01T02:00:32;19.45;;;8.30;;
52838;SDS011;39219;53.678;9.856;2023-04-01T02:02:59;21.15;;;8.75;;
52838;SDS011;39219;53.678;9.856;2023-04-01T02:05:26;19.73;;;8.50;;
52838;SDS011;39219;53.678;9.856;2023-04-01T02:07:55;18.80;;;8.43;;
52838;SDS011;39219;53.678;9.856;2023-04-01T02:10:25;17.40;;;8.25;;
52838;SDS011;39219;53.678;9.856;2023-04-01T02:12:51;16.67;;;8.13;;
52838;SDS011;39219;53.678;9.856;2023-04-01T02:15:19;18.35;;;7.72;;
52838;SDS011;39219;53.678;9.856;2023-04-01T02:17:47;20.40;;;8.45;;
52838;SDS011;39219;53.678;9.856;2023-04-01T02:20:15;19.23;;;8.50;;
52838;SDS011;39219;53.678;9.856;2023-04-01T02:22:42;18.00;;;8.23;;
52838;SDS011;39219;53.678;9.856;2023-04-01T02:25:11;19.60;;;8.07;;
52838;SDS011;39219;53.678;9.856;2023-04-01T02:27:39;16.98;;;7.78;;
52838;SDS011;39219;53.678;9.856;2023-04-01T02:30:06;17.65;;;7.70;;
52838;SDS011;39219;53.678;9.856;2023-04-01T02:32:33;18.17;;;7.80;;
52838;SDS011;39219;53.678;9.856;2023-04-01T02:34:59;16.17;;;7.90;;
52838;SDS011;39219;53.678;9.856;2023-04-01T02:37:30;16.83;;;7.47;;
52838;SDS011;39219;53.678;9.856;2023-04-01T02:39:58;15.25;;;7.57;;
52838;SDS011;39219;53.678;9.856;2023-04-01T02:42:25;16.00;;;7.57;;
52838;SDS011;39219;53.678;9.856;2023-04-01T02:44:52;15.45;;;7.28;;
52838;SDS011;39219;53.678;9.856;2023-04-01T02:47:19;18.30;;;7.20;;
52838;SDS011;39219;53.678;9.856;2023-04-01T02:49:45;17.83;;;7.35;;
52838;SDS011;39219;53.678;9.856;2023-04-01T02:52:11;18.90;;;7.82;;
52838;SDS011;39219;53.678;9.856;2023-04-01T02:54:38;15.80;;;8.05;;
52838;SDS011;39219;53.678;9.856;2023-04-01T02:57:04;17.38;;;7.55;;
52838;SDS011;39219;53.678;9.856;2023-04-01T02:59:30;16.42;;;7.43;;
52838;SDS011;39219;53.678;9.856;2023-04-01T03:01:58;19.02;;;8.05;;
52838;SDS011;39219;53.678;9.856;2023-04-01T03:04:24;14.80;;;7.22;;
52838;SDS011;39219;53.678;9.856;2023-04-01T03:06:51;15.10;;;7.47;;
52838;SDS011;39219;53.678;9.856;2023-04-01T03:09:17;20.35;;;7.78;;
52838;SDS011;39219;53.678;9.856;2023-04-01T03:11:43;15.55;;;7.50;;
52838;SDS011;39219;53.678;9.856;2023-04-01T03:14:09;15.18;;;7.60;;
52838;SDS011;39219;53.678;9.856;2023-04-01T03:16:36;14.70;;;7.22;;
52838;SDS011;39219;53.678;9.856;2023-04-01T03:19:03;16.15;;;7.72;;
52838;SDS011;39219;53.678;9.856;2023-04-01T03:21:30;15.18;;;7.30;;
52838;SDS011;39219;53.678;9.856;2023-04-01T03:23:56;18.02;;;7.40;;
52838;SDS011;39219;53.678;9.856;2023-04-01T03:26:23;15.82;;;7.80;;
52838;SDS011;39219;53.678;9.856;2023-04-01T03:28:51;17.20;;;7.25;;
52838;SDS011;39219;53.678;9.856;2023-04-01T03:31:18;16.40;;;7.97;;
52838;SDS011;39219;53.678;9.856;2023-04-01T03:33:44;15.23;;;7.57;;
52838;SDS011;39219;53.678;9.856;2023-04-01T03:36:12;18.30;;;7.50;;
52838;SDS011;39219;53.678;9.856;2023-04-01T03:38:38;16.65;;;7.50;;
52838;SDS011;39219;53.678;9.856;2023-04-01T03:41:04;18.15;;;7.60;;
52838;SDS011;39219;53.678;9.856;2023-04-01T03:43:31;14.88;;;6.97;;
52838;SDS011;39219;53.678;9.856;2023-04-01T03:45:58;13.23;;;6.95;;
52838;SDS011;39219;53.678;9.856;2023-04-01T03:48:24;12.88;;;6.60;;
52838;SDS011;39219;53.678;9.856;2023-04-01T03:50:51;17.95;;;7.00;;
52838;SDS011;39219;53.678;9.856;2023-04-01T03:53:19;16.05;;;7.13;;
52838;SDS011;39219;53.678;9.856;2023-04-01T03:55:45;12.75;;;6.32;;
52838;SDS011;39219;53.678;9.856;2023-04-01T03:58:12;14.20;;;7.00;;
52838;SDS011;39219;53.678;9.856;2023-04-01T04:00:38;15.00;;;7.43;;
52838;SDS011;39219;53.678;9.856;2023-04-01T04:03:05;14.00;;;7.03;;
52838;SDS011;39219;53.678;9.856;2023-04-01T04:05:31;14.88;;;7.20;;
52838;SDS011;39219;53.678;9.856;2023-04-01T04:07:58;16.95;;;7.05;;
52838;SDS011;39219;53.678;9.856;2023-04-01T04:10:25;14.50;;;7.60;;
52838;SDS011;39219;53.678;9.856;2023-04-01T04:12:54;15.07;;;8.00;;
52838;SDS011;39219;53.678;9.856;2023-04-01T04:15:20;15.18;;;7.97;;
52838;SDS011;39219;53.678;9.856;2023-04-01T04:17:46;13.10;;;6.63;;
52838;SDS011;39219;53.678;9.856;2023-04-01T04:20:13;9.38;;;5.18;;
52838;SDS011;39219;53.678;9.856;2023-04-01T04:22:40;7.45;;;4.00;;
52838;SDS011;39219;53.678;9.856;2023-04-01T04:25:06;6.53;;;3.83;;
52838;SDS011;39219;53.678;9.856;2023-04-01T04:27:34;7.30;;;3.83;;
52838;SDS011;39219;53.678;9.856;2023-04-01T04:30:01;8.30;;;4.28;;
52838;SDS011;39219;53.678;9.856;2023-04-01T04:32:27;6.13;;;3.92;;
52838;SDS011;39219;53.678;9.856;2023-04-01T04:34:53;7.15;;;3.80;;
52838;SDS011;39219;53.678;9.856;2023-04-01T04:37:20;7.38;;;3.90;;
52838;SDS011;39219;53.678;9.856;2023-04-01T04:39:46;8.07;;;3.80;;
52838;SDS011;39219;53.678;9.856;2023-04-01T04:42:12;8.20;;;3.85;;
52838;SDS011;39219;53.678;9.856;2023-04-01T04:44:40;8.35;;;3.60;;
52838;SDS011;39219;53.678;9.856;2023-04-01T04:47:06;6.75;;;3.30;;
52838;SDS011;39219;53.678;9.856;2023-04-01T04:49:32;6.68;;;3.70;;
52838;SDS011;39219;53.678;9.856;2023-04-01T04:51:58;8.18;;;3.78;;
52838;SDS011;39219;53.678;9.856;2023-04-01T04:54:25;8.88;;;3.80;;
52838;SDS011;39219;53.678;9.856;2023-04-01T04:56:51;8.20;;;4.07;;
52838;SDS011;39219;53.678;9.856;2023-04-01T04:59:17;8.02;;;4.25;;
52838;SDS011;39219;53.678;9.856;2023-04-01T05:01:45;7.85;;;4.00;;
52838;SDS011;39219;53.678;9.856;2023-04-01T05:04:11;8.18;;;4.00;;
52838;SDS011;39219;53.678;9.856;2023-04-01T05:06:38;7.43;;;3.85;;
52838;SDS011;39219;53.678;9.856;2023-04-01T05:09:04;8.63;;;4.25;;
52838;SDS011;39219;53.678;9.856;2023-04-01T05:11:30;9.15;;;4.22;;
52838;SDS011;39219;53.678;9.856;2023-04-01T05:13:56;9.48;;;4.38;;
52838;SDS011;39219;53.678;9.856;2023-04-01T05:16:23;7.70;;;4.15;;
52838;SDS011;39219;53.678;9.856;2023-04-01T05:18:50;7.35;;;4.25;;
52838;SDS011;39219;53.678;9.856;2023-04-01T05:21:17;7.80;;;3.97;;
52838;SDS011;39219;53.678;9.856;2023-04-01T05:23:43;7.45;;;3.80;;
52838;SDS011;39219;53.678;9.856;2023-04-01T05:26:10;6.65;;;3.65;;
52838;SDS011;39219;53.678;9.856;2023-04-01T05:28:37;7.03;;;3.72;;
52838;SDS011;39219;53.678;9.856;2023-04-01T05:31:03;7.47;;;3.88;;
52838;SDS011;39219;53.678;9.856;2023-04-01T05:33:30;5.18;;;3.10;;
52838;SDS011;39219;53.678;9.856;2023-04-01T05:35:58;4.28;;;2.67;;
52838;SDS011;39219;53.678;9.856;2023-04-01T05:38:31;3.85;;;2.72;;
52838;SDS011;39219;53.678;9.856;2023-04-01T05:40:58;4.28;;;2.63;;
52838;SDS011;39219;53.678;9.856;2023-04-01T05:43:24;4.93;;;2.80;;
52838;SDS011;39219;53.678;9.856;2023-04-01T05:45:50;3.40;;;2.25;;
52838;SDS011;39219;53.678;9.856;2023-04-01T05:48:17;4.22;;;2.70;;
52838;SDS011;39219;53.678;9.856;2023-04-01T05:50:43;4.60;;;2.75;;
52838;SDS011;39219;53.678;9.856;2023-04-01T05:53:11;4.75;;;2.90;;
52838;SDS011;39219;53.678;9.856;2023-04-01T05:55:37;4.07;;;2.30;;
52838;SDS011;39219;53.678;9.856;2023-04-01T05:58:04;3.70;;;2.20;;
52838;SDS011;39219;53.678;9.856;2023-04-01T06:00:31;4.18;;;2.58;;
52838;SDS011;39219;53.678;9.856;2023-04-01T06:02:58;3.28;;;2.35;;
52838;SDS011;39219;53.678;9.856;2023-04-01T06:05:24;5.07;;;2.70;;
52838;SDS011;39219;53.678;9.856;2023-04-01T06:07:55;3.95;;;2.55;;
52838;SDS011;39219;53.678;9.856;2023-04-01T06:10:25;4.18;;;2.60;;
52838;SDS011;39219;53.678;9.856;2023-04-01T06:12:56;3.53;;;2.30;;
52838;SDS011;39219;53.678;9.856;2023-04-01T06:15:30;4.75;;;2.40;;
52838;SDS011;39219;53.678;9.856;2023-04-01T06:18:03;4.22;;;2.45;;
52838;SDS011;39219;53.678;9.856;2023-04-01T06:20:36;3.15;;;2.10;;
52838;SDS011;39219;53.678;9.856;2023-04-01T06:23:10;3.08;;;2.03;;
52838;SDS011;39219;53.678;9.856;2023-04-01T06:25:47;3.65;;;1.90;;
52838;SDS011;39219;53.678;9.856;2023-04-01T06:31:10;4.20;;;2.30;;
52838;SDS011;39219;53.678;9.856;2023-04-01T06:33:42;3.67;;;2.15;;
52838;SDS011;39219;53.678;9.856;2023-04-01T06:36:18;3.67;;;2.30;;
52838;SDS011;39219;53.678;9.856;2023-04-01T06:38:56;2.08;;;1.77;;
52838;SDS011;39219;53.678;9.856;2023-04-01T06:44:13;3.80;;;1.95;;
52838;SDS011;39219;53.678;9.856;2023-04-01T06:46:44;4.13;;;2.10;;
52838;SDS011;39219;53.678;9.856;2023-04-01T06:51:59;3.35;;;1.92;;
52838;SDS011;39219;53.678;9.856;2023-04-01T06:54:29;2.67;;;1.95;;
52838;SDS011;39219;53.678;9.856;2023-04-01T06:56:57;2.45;;;1.95;;
52838;SDS011;39219;53.678;9.856;2023-04-01T06:59:27;3.72;;;1.90;;
52838;SDS011;39219;53.678;9.856;2023-04-01T07:01:54;4.20;;;1.90;;
52838;SDS011;39219;53.678;9.856;2023-04-01T07:04:23;2.20;;;1.52;;
52838;SDS011;39219;53.678;9.856;2023-04-01T07:06:52;2.53;;;1.70;;
52838;SDS011;39219;53.678;9.856;2023-04-01T07:09:21;2.92;;;1.85;;
52838;SDS011;39219;53.678;9.856;2023-04-01T07:11:48;3.03;;;1.60;;
52838;SDS011;39219;53.678;9.856;2023-04-01T07:14:17;3.58;;;1.70;;
52838;SDS011;39219;53.678;9.856;2023-04-01T07:16:48;3.67;;;2.00;;
52838;SDS011;39219;53.678;9.856;2023-04-01T07:19:18;3.00;;;1.50;;
52838;SDS011;39219;53.678;9.856;2023-04-01T07:21:47;2.83;;;1.92;;
52838;SDS011;39219;53.678;9.856;2023-04-01T07:24:16;3.15;;;1.90;;
52838;SDS011;39219;53.678;9.856;2023-04-01T07:26:47;3.88;;;2.28;;
52838;SDS011;39219;53.678;9.856;2023-04-01T07:29:14;4.32;;;2.20;;
52838;SDS011;39219;53.678;9.856;2023-04-01T07:31:47;3.90;;;1.90;;
52838;SDS011;39219;53.678;9.856;2023-04-01T07:34:19;4.20;;;2.40;;
52838;SDS011;39219;53.678;9.856;2023-04-01T07:36:51;4.55;;;1.80;;
52838;SDS011;39219;53.678;9.856;2023-04-01T07:39:24;3.05;;;2.03;;
52838;SDS011;39219;53.678;9.856;2023-04-01T07:41:55;4.07;;;1.93;;
52838;SDS011;39219;53.678;9.856;2023-04-01T07:44:25;4.55;;;2.20;;
52838;SDS011;39219;53.678;9.856;2023-04-01T07:46:56;3.40;;;1.88;;
52838;SDS011;39219;53.678;9.856;2023-04-01T07:49:27;2.90;;;2.05;;
52838;SDS011;39219;53.678;9.856;2023-04-01T07:51:56;3.25;;;1.52;;
52838;SDS011;39219;53.678;9.856;2023-04-01T07:54:26;4.28;;;2.10;;
52838;SDS011;39219;53.678;9.856;2023-04-01T07:56:55;2.88;;;1.52;;
52838;SDS011;39219;53.678;9.856;2023-04-01T07:59:25;2.75;;;1.48;;
52838;SDS011;39219;53.678;9.856;2023-04-01T08:01:57;3.75;;;1.73;;
52838;SDS011;39219;53.678;9.856;2023-04-01T08:04:35;2.90;;;1.90;;
52838;SDS011;39219;53.678;9.856;2023-04-01T08:07:08;2.63;;;1.73;;
52838;SDS011;39219;53.678;9.856;2023-04-01T08:09:38;4.13;;;1.98;;
52838;SDS011;39219;53.678;9.856;2023-04-01T08:12:08;4.35;;;2.03;;
52838;SDS011;39219;53.678;9.856;2023-04-01T08:14:40;3.13;;;1.92;;
52838;SDS011;39219;53.678;9.856;2023-04-01T08:17:10;3.17;;;1.95;;
52838;SDS011;39219;53.678;9.856;2023-04-01T08:19:47;3.70;;;1.60;;
52838;SDS011;39219;53.678;9.856;2023-04-01T08:22:18;2.47;;;1.60;;
52838;SDS011;39219;53.678;9.856;2023-04-01T08:24:47;1.77;;;1.48;;
52838;SDS011;39219;53.678;9.856;2023-04-01T08:27:16;2.83;;;1.50;;
52838;SDS011;39219;53.678;9.856;2023-04-01T08:29:45;3.28;;;1.55;;
52838;SDS011;39219;53.678;9.856;2023-04-01T08:32:12;3.28;;;1.48;;
52838;SDS011;39219;53.678;9.856;2023-04-01T08:34:42;1.95;;;1.20;;
52838;SDS011;39219;53.678;9.856;2023-04-01T08:37:12;1.95;;;1.50;;
52838;SDS011;39219;53.678;9.856;2023-04-01T08:39:43;3.08;;;1.35;;
52838;SDS011;39219;53.678;9.856;2023-04-01T08:42:17;2.13;;;1.25;;
52838;SDS011;39219;53.678;9.856;2023-04-01T08:47:30;4.30;;;2.03;;
52838;SDS011;39219;53.678;9.856;2023-04-01T08:52:45;2.28;;;1.50;;
52838;SDS011;39219;53.678;9.856;2023-04-01T08:55:26;2.80;;;1.60;;
52838;SDS011;39219;53.678;9.856;2023-04-01T08:57:57;2.65;;;1.52;;
52838;SDS011;39219;53.678;9.856;2023-04-01T09:00:26;1.85;;;1.35;;
52838;SDS011;39219;53.678;9.856;2023-04-01T09:03:00;2.15;;;1.60;;
52838;SDS011;39219;53.678;9.856;2023-04-01T09:05:32;2.30;;;1.23;;
52838;SDS011;39219;53.678;9.856;2023-04-01T09:08:05;2.15;;;1.55;;
52838;SDS011;39219;53.678;9.856;2023-04-01T09:10:44;2.95;;;1.67;;
52838;SDS011;39219;53.678;9.856;2023-04-01T09:16:17;1.90;;;1.27;;
52838;SDS011;39219;53.678;9.856;2023-04-01T09:19:02;1.63;;;1.20;;
52838;SDS011;39219;53.678;9.856;2023-04-01T09:21:43;2.40;;;1.17;;
52838;SDS011;39219;53.678;9.856;2023-04-01T09:24:21;2.38;;;1.50;;
52838;SDS011;39219;53.678;9.856;2023-04-01T09:26:57;1.65;;;1.40;;
52838;SDS011;39219;53.678;9.856;2023-04-01T09:29:32;2.03;;;1.40;;
52838;SDS011;39219;53.678;9.856;2023-04-01T09:32:10;2.00;;;1.60;;
52838;SDS011;39219;53.678;9.856;2023-04-01T09:34:51;3.85;;;2.42;;
52838;SDS011;39219;53.678;9.856;2023-04-01T09:37:19;2.55;;;1.83;;
52838;SDS011;39219;53.678;9.856;2023-04-01T09:39:51;2.92;;;1.85;;
52838;SDS011;39219;53.678;9.856;2023-04-01T09:42:34;2.75;;;1.88;;
52838;SDS011;39219;53.678;9.856;2023-04-01T09:45:07;2.60;;;1.90;;
52838;SDS011;39219;53.678;9.856;2023-04-01T09:47:40;3.05;;;1.83;;
52838;SDS011;39219;53.678;9.856;2023-04-01T09:50:17;3.03;;;2.10;;
52838;SDS011;39219;53.678;9.856;2023-04-01T09:52:48;1.85;;;1.67;;
52838;SDS011;39219;53.678;9.856;2023-04-01T09:55:21;2.75;;;1.40;;
52838;SDS011;39219;53.678;9.856;2023-04-01T10:03:37;1.85;;;1.38;;
52838;SDS011;39219;53.678;9.856;2023-04-01T10:06:12;1.80;;;1.30;;
52838;SDS011;39219;53.678;9.856;2023-04-01T10:08:56;1.70;;;1.40;;
52838;SDS011;39219;53.678;9.856;2023-04-01T10:11:36;1.27;;;1.13;;
52838;SDS011;39219;53.678;9.856;2023-04-01T10:14:26;3.03;;;1.38;;
52838;SDS011;39219;53.678;9.856;2023-04-01T10:19:52;1.90;;;1.20;;
52838;SDS011;39219;53.678;9.856;2023-04-01T10:25:18;1.20;;;1.10;;
52838;SDS011;39219;53.678;9.856;2023-04-01T10:27:51;2.10;;;1.40;;
52838;SDS011;39219;53.678;9.856;2023-04-01T10:30:38;2.33;;;1.40;;
52838;SDS011;39219;53.678;9.856;2023-04-01T10:35:50;2.55;;;1.60;;
52838;SDS011;39219;53.678;9.856;2023-04-01T10:38:39;2.03;;;1.40;;
52838;SDS011;39219;53.678;9.856;2023-04-01T10:41:33;2.80;;;1.30;;
52838;SDS011;39219;53.678;9.856;2023-04-01T10:44:17;2.40;;;1.65;;
52838;SDS011;39219;53.678;9.856;2023-04-01T10:49:47;2.17;;;1.52;;
52838;SDS011;39219;53.678;9.856;2023-04-01T10:52:32;2.13;;;1.67;;
52838;SDS011;39219;53.678;9.856;2023-04-01T10:55:14;4.82;;;1.80;;
52838;SDS011;39219;53.678;9.856;2023-04-01T10:57:53;3.50;;;1.65;;
52838;SDS011;39219;53.678;9.856;2023-04-01T11:06:07;3.10;;;1.90;;
52838;SDS011;39219;53.678;9.856;2023-04-01T11:08:52;2.75;;;1.75;;
52838;SDS011;39219;53.678;9.856;2023-04-01T11:11:42;3.08;;;2.20;;
52838;SDS011;39219;53.678;9.856;2023-04-01T11:17:10;3.05;;;2.20;;
52838;SDS011;39219;53.678;9.856;2023-04-01T11:22:50;3.38;;;2.60;;
52838;SDS011;39219;53.678;9.856;2023-04-01T11:25:23;5.22;;;2.60;;
52838;SDS011;39219;53.678;9.856;2023-04-01T11:28:03;4.57;;;2.50;;
52838;SDS011;39219;53.678;9.856;2023-04-01T11:30:40;4.47;;;2.70;;
52838;SDS011;39219;53.678;9.856;2023-04-01T11:33:08;5.00;;;2.80;;
52838;SDS011;39219;53.678;9.856;2023-04-01T11:35:49;5.10;;;2.90;;
52838;SDS011;39219;53.678;9.856;2023-04-01T11:38:22;5.32;;;2.92;;
52838;SDS011;39219;53.678;9.856;2023-04-01T11:40:51;4.28;;;2.83;;
52838;SDS011;39219;53.678;9.856;2023-04-01T11:43:21;5.40;;;3.20;;
52838;SDS011;39219;53.678;9.856;2023-04-01T11:45:51;6.28;;;2.90;;
52838;SDS011;39219;53.678;9.856;2023-04-01T11:48:25;5.57;;;3.03;;
52838;SDS011;39219;53.678;9.856;2023-04-01T11:50:59;4.28;;;2.88;;
52838;SDS011;39219;53.678;9.856;2023-04-01T11:53:35;7.05;;;3.40;;
52838;SDS011;39219;53.678;9.856;2023-04-01T11:56:07;7.15;;;3.60;;
52838;SDS011;39219;53.678;9.856;2023-04-01T12:01:27;8.13;;;3.60;;
52838;SDS011;39219;53.678;9.856;2023-04-01T12:06:41;8.88;;;4.22;;
52838;SDS011;39219;53.678;9.856;2023-04-01T12:09:12;7.28;;;4.00;;
52838;SDS011;39219;53.678;9.856;2023-04-01T12:11:42;6.57;;;3.80;;
52838;SDS011;39219;53.678;9.856;2023-04-01T12:14:11;8.90;;;4.10;;
52838;SDS011;39219;53.678;9.856;2023-04-01T12:16:42;7.18;;;4.05;;
52838;SDS011;39219;53.678;9.856;2023-04-01T12:19:13;9.45;;;4.20;;
52838;SDS011;39219;53.678;9.856;2023-04-01T12:21:42;6.47;;;3.95;;
52838;SDS011;39219;53.678;9.856;2023-04-01T12:27:01;9.07;;;4.10;;
52838;SDS011;39219;53.678;9.856;2023-04-01T12:29:45;8.52;;;4.25;;
52838;SDS011;39219;53.678;9.856;2023-04-01T12:32:15;7.60;;;4.03;;
52838;SDS011;39219;53.678;9.856;2023-04-01T12:34:49;7.93;;;4.60;;
52838;SDS011;39219;53.678;9.856;2023-04-01T12:37:26;8.20;;;4.35;;
52838;SDS011;39219;53.678;9.856;2023-04-01T12:40:04;9.18;;;4.20;;
52838;SDS011;39219;53.678;9.856;2023-04-01T12:42:41;8.68;;;4.18;;
52838;SDS011;39219;53.678;9.856;2023-04-01T12:45:23;8.00;;;4.30;;
52838;SDS011;39219;53.678;9.856;2023-04-01T12:48:00;7.60;;;4.28;;
52838;SDS011;39219;53.678;9.856;2023-04-01T12:50:52;7.13;;;4.22;;
52838;SDS011;39219;53.678;9.856;2023-04-01T12:53:24;9.35;;;4.35;;
52838;SDS011;39219;53.678;9.856;2023-04-01T12:55:59;7.60;;;4.05;;
52838;SDS011;39219;53.678;9.856;2023-04-01T12:58:33;8.27;;;4.05;;
52838;SDS011;39219;53.678;9.856;2023-04-01T13:04:01;8.23;;;4.65;;
52838;SDS011;39219;53.678;9.856;2023-04-01T13:06:36;8.90;;;4.75;;
52838;SDS011;39219;53.678;9.856;2023-04-01T13:09:09;10.05;;;4.28;;
52838;SDS011;39219;53.678;9.856;2023-04-01T13:11:44;7.82;;;4.03;;
52838;SDS011;39219;53.678;9.856;2023-04-01T13:14:33;7.97;;;4.03;;
52838;SDS011;39219;53.678;9.856;2023-04-01T13:17:04;10.57;;;4.05;;
52838;SDS011;39219;53.678;9.856;2023-04-01T13:19:34;7.05;;;3.70;;
52838;SDS011;39219;53.678;9.856;2023-04-01T13:22:04;8.65;;;4.10;;
52838;SDS011;39219;53.678;9.856;2023-04-01T13:24:36;9.73;;;4.28;;
52838;SDS011;39219;53.678;9.856;2023-04-01T13:27:05;7.30;;;4.03;;
52838;SDS011;39219;53.678;9.856;2023-04-01T13:29:36;6.95;;;3.80;;
52838;SDS011;39219;53.678;9.856;2023-04-01T13:32:06;6.78;;;3.90;;
52838;SDS011;39219;53.678;9.856;2023-04-01T13:34:39;6.95;;;4.10;;
52838;SDS011;39219;53.678;9.856;2023-04-01T13:37:19;9.18;;;3.78;;
52838;SDS011;39219;53.678;9.856;2023-04-01T13:39:57;6.13;;;3.30;;
52838;SDS011;39219;53.678;9.856;2023-04-01T13:42:28;7.10;;;3.53;;
52838;SDS011;39219;53.678;9.856;2023-04-01T13:44:59;7.18;;;3.72;;
52838;SDS011;39219;53.678;9.856;2023-04-01T13:50:23;9.77;;;4.35;;
52838;SDS011;39219;53.678;9.856;2023-04-01T13:53:08;7.28;;;3.97;;
52838;SDS011;39219;53.678;9.856;2023-04-01T14:00:54;8.68;;;4.20;;
52838;SDS011;39219;53.678;9.856;2023-04-01T14:03:32;7.07;;;3.92;;
52838;SDS011;39219;53.678;9.856;2023-04-01T14:06:25;8.68;;;3.97;;
52838;SDS011;39219;53.678;9.856;2023-04-01T14:09:04;7.30;;;3.72;;
52838;SDS011;39219;53.678;9.856;2023-04-01T14:11:36;8.27;;;4.38;;
52838;SDS011;39219;53.678;9.856;2023-04-01T14:14:08;9.07;;;4.35;;
52838;SDS011;39219;53.678;9.856;2023-04-01T14:16:57;9.40;;;4.63;;
52838;SDS011;39219;53.678;9.856;2023-04-01T14:19:30;10.60;;;5.13;;
52838;SDS011;39219;53.678;9.856;2023-04-01T14:22:02;9.52;;;4.80;;
52838;SDS011;39219;53.678;9.856;2023-04-01T14:24:33;10.30;;;4.72;;
52838;SDS011;39219;53.678;9.856;2023-04-01T14:27:19;10.18;;;4.85;;
52838;SDS011;39219;53.678;9.856;2023-04-01T14:32:37;10.88;;;5.07;;
52838;SDS011;39219;53.678;9.856;2023-04-01T14:35:13;11.45;;;5.32;;
52838;SDS011;39219;53.678;9.856;2023-04-01T14:37:54;11.98;;;5.32;;
52838;SDS011;39219;53.678;9.856;2023-04-01T14:40:26;11.60;;;4.80;;
52838;SDS011;39219;53.678;9.856;2023-04-01T14:48:21;10.52;;;4.82;;
52838;SDS011;39219;53.678;9.856;2023-04-01T14:50:50;12.68;;;5.15;;
52838;SDS011;39219;53.678;9.856;2023-04-01T14:53:23;11.10;;;4.68;;
52838;SDS011;39219;53.678;9.856;2023-04-01T14:55:53;9.10;;;4.53;;
52838;SDS011;39219;53.678;9.856;2023-04-01T14:58:20;9.23;;;4.20;;
52838;SDS011;39219;53.678;9.856;2023-04-01T15:00:53;8.45;;;4.40;;
52838;SDS011;39219;53.678;9.856;2023-04-01T15:03:24;10.65;;;4.70;;
52838;SDS011;39219;53.678;9.856;2023-04-01T15:05:53;9.13;;;4.47;;
52838;SDS011;39219;53.678;9.856;2023-04-01T15:08:21;13.93;;;5.00;;
52838;SDS011;39219;53.678;9.856;2023-04-01T15:10:51;10.73;;;5.05;;
52838;SDS011;39219;53.678;9.856;2023-04-01T15:13:21;11.35;;;4.97;;
52838;SDS011;39219;53.678;9.856;2023-04-01T15:15:58;12.80;;;5.40;;
52838;SDS011;39219;53.678;9.856;2023-04-01T15:18:30;11.27;;;4.93;;
52838;SDS011;39219;53.678;9.856;2023-04-01T15:21:17;8.93;;;4.40;;
52838;SDS011;39219;53.678;9.856;2023-04-01T15:23:46;10.18;;;4.75;;
52838;SDS011;39219;53.678;9.856;2023-04-01T15:26:19;11.93;;;4.80;;
52838;SDS011;39219;53.678;9.856;2023-04-01T15:28:50;10.93;;;5.28;;
52838;SDS011;39219;53.678;9.856;2023-04-01T15:31:24;14.60;;;5.47;;
52838;SDS011;39219;53.678;9.856;2023-04-01T15:34:06;12.13;;;4.93;;
52838;SDS011;39219;53.678;9.856;2023-04-01T15:36:39;14.18;;;5.40;;
52838;SDS011;39219;53.678;9.856;2023-04-01T15:39:10;13.02;;;5.55;;
52838;SDS011;39219;53.678;9.856;2023-04-01T15:41:42;15.00;;;5.50;;
52838;SDS011;39219;53.678;9.856;2023-04-01T15:46:50;14.20;;;5.82;;
52838;SDS011;39219;53.678;9.856;2023-04-01T15:49:22;12.32;;;5.72;;
52838;SDS011;39219;53.678;9.856;2023-04-01T15:51:58;12.80;;;5.43;;
52838;SDS011;39219;53.678;9.856;2023-04-01T15:54:27;17.90;;;5.53;;
52838;SDS011;39219;53.678;9.856;2023-04-01T15:57:08;10.40;;;5.07;;
52838;SDS011;39219;53.678;9.856;2023-04-01T15:59:53;12.38;;;5.28;;
52838;SDS011;39219;53.678;9.856;2023-04-01T16:02:21;12.20;;;5.60;;
52838;SDS011;39219;53.678;9.856;2023-04-01T16:04:52;12.63;;;5.30;;
52838;SDS011;39219;53.678;9.856;2023-04-01T16:07:23;12.30;;;5.30;;
52838;SDS011;39219;53.678;9.856;2023-04-01T16:10:03;11.75;;;5.07;;
52838;SDS011;39219;53.678;9.856;2023-04-01T16:12:36;13.48;;;5.28;;
52838;SDS011;39219;53.678;9.856;2023-04-01T16:15:09;13.23;;;5.70;;
52838;SDS011;39219;53.678;9.856;2023-04-01T16:17:53;14.65;;;5.43;;
52838;SDS011;39219;53.678;9.856;2023-04-01T16:20:22;13.93;;;5.60;;
52838;SDS011;39219;53.678;9.856;2023-04-01T16:22:53;12.23;;;4.70;;
52838;SDS011;39219;53.678;9.856;2023-04-01T16:25:26;12.52;;;4.88;;
52838;SDS011;39219;53.678;9.856;2023-04-01T16:27:58;10.30;;;4.88;;